sensor_id;sensor_type;location;lat;lon;timestamp;P1;durP1;ratioP1;P2;durP2;ratioP2
68614;SDS011;55593;51.994;5.882;2024-03-25T00:01:40;20.75;;;5.25;;
68614;SDS011;55593;51.994;5.882;2024-03-25T00:04:06;29.38;;;3.67;;
68614;SDS011;55593;51.994;5.882;2024-03-25T00:06:33;25.52;;;4.65;;
68614;SDS011;55593;51.994;5.882;2024-03-25T00:08:59;23.90;;;4.32;;
68614;SDS011;55593;51.994;5.882;2024-03-25T00:11:26;23.33;;;4.25;;
68614;SDS011;55593;51.994;5.882;2024-03-25T00:13:52;27.48;;;4.88;;
68614;SDS011;55593;51.994;5.882;2024-03-25T00:16:21;24.55;;;4.65;;
68614;SDS011;55593;51.994;5.882;2024-03-25T00:18:48;31.65;;;6.15;;
68614;SDS011;55593;51.994;5.882;2024-03-25T00:21:14;22.77;;;4.78;;
68614;SDS011;55593;51.994;5.882;2024-03-25T00:23:41;22.70;;;4.00;;
68614;SDS011;55593;51.994;5.882;2024-03-25T00:26:07;18.33;;;3.80;;
68614;SDS011;55593;51.994;5.882;2024-03-25T00:28:33;16.42;;;3.33;;
68614;SDS011;55593;51.994;5.882;2024-03-25T00:31:00;32.38;;;5.60;;
68614;SDS011;55593;51.994;5.882;2024-03-25T00:33:29;31.63;;;4.70;;
68614;SDS011;55593;51.994;5.882;2024-03-25T00:35:56;21.13;;;4.97;;
68614;SDS011;55593;51.994;5.882;2024-03-25T00:38:22;29.75;;;4.40;;
68614;SDS011;55593;51.994;5.882;2024-03-25T00:40:49;31.60;;;5.10;;
68614;SDS011;55593;51.994;5.882;2024-03-25T00:43:15;37.20;;;4.80;;
68614;SDS011;55593;51.994;5.882;2024-03-25T00:45:42;23.88;;;4.15;;
68614;SDS011;55593;51.994;5.882;2024-03-25T00:48:08;28.27;;;5.28;;
68614;SDS011;55593;51.994;5.882;2024-03-25T00:50:37;28.00;;;5.40;;
68614;SDS011;55593;51.994;5.882;2024-03-25T00:53:04;33.35;;;4.30;;
68614;SDS011;55593;51.994;5.882;2024-03-25T00:55:30;24.45;;;3.92;;
68614;SDS011;55593;51.994;5.882;2024-03-25T00:57:57;24.92;;;5.38;;
68614;SDS011;55593;51.994;5.882;2024-03-25T01:00:23;20.23;;;3.42;;
68614;SDS011;55593;51.994;5.882;2024-03-25T01:02:50;19.42;;;4.00;;
68614;SDS011;55593;51.994;5.882;2024-03-25T01:05:16;22.77;;;4.60;;
68614;SDS011;55593;51.994;5.882;2024-03-25T01:07:45;18.20;;;3.55;;
68614;SDS011;55593;51.994;5.882;2024-03-25T01:10:12;19.35;;;3.22;;
68614;SDS011;55593;51.994;5.882;2024-03-25T01:12:38;21.55;;;4.13;;
68614;SDS011;55593;51.994;5.882;2024-03-25T01:15:05;31.40;;;4.15;;
68614;SDS011;55593;51.994;5.882;2024-03-25T01:17:32;26.10;;;3.90;;
68614;SDS011;55593;51.994;5.882;2024-03-25T01:19:59;22.55;;;5.43;;
68614;SDS011;55593;51.994;5.882;2024-03-25T01:22:25;27.60;;;4.18;;
68614;SDS011;55593;51.994;5.882;2024-03-25T01:24:54;28.65;;;4.60;;
68614;SDS011;55593;51.994;5.882;2024-03-25T01:27:21;23.02;;;4.18;;
68614;SDS011;55593;51.994;5.882;2024-03-25T01:29:47;15.68;;;3.78;;
68614;SDS011;55593;51.994;5.882;2024-03-25T01:32:14;31.83;;;5.35;;
68614;SDS011;55593;51.994;5.882;2024-03-25T01:34:40;25.23;;;3.88;;
68614;SDS011;55593;51.994;5.882;2024-03-25T01:37:07;30.95;;;4.43;;
68614;SDS011;55593;51.994;5.882;2024-03-25T01:39:33;27.45;;;4.85;;
68614;SDS011;55593;51.994;5.882;2024-03-25T01:42:02;23.35;;;4.45;;
68614;SDS011;55593;51.994;5.882;2024-03-25T01:44:29;33.25;;;5.57;;
68614;SDS011;55593;51.994;5.882;2024-03-25T01:46:55;29.83;;;4.38;;
68614;SDS011;55593;51.994;5.882;2024-03-25T01:49:22;33.67;;;5.85;;
68614;SDS011;55593;51.994;5.882;2024-03-25T01:51:48;26.80;;;4.75;;
68614;SDS011;55593;51.994;5.882;2024-03-25T01:54:15;24.45;;;4.80;;
68614;SDS011;55593;51.994;5.882;2024-03-25T01:56:41;34.30;;;5.80;;
68614;SDS011;55593;51.994;5.882;2024-03-25T01:59:12;27.67;;;4.72;;
68614;SDS011;55593;51.994;5.882;2024-03-25T02:01:38;29.90;;;4.68;;
68614;SDS011;55593;51.994;5.882;2024-03-25T02:04:06;26.98;;;4.38;;
68614;SDS011;55593;51.994;5.882;2024-03-25T02:06:33;27.58;;;4.90;;
68614;SDS011;55593;51.994;5.882;2024-03-25T02:08:59;33.17;;;5.80;;
68614;SDS011;55593;51.994;5.882;2024-03-25T02:11:28;27.02;;;5.22;;
68614;SDS011;55593;51.994;5.882;2024-03-25T02:13:55;27.25;;;4.82;;
68614;SDS011;55593;51.994;5.882;2024-03-25T02:16:24;22.95;;;4.60;;
68614;SDS011;55593;51.994;5.882;2024-03-25T02:18:51;31.45;;;4.88;;
68614;SDS011;55593;51.994;5.882;2024-03-25T02:21:17;33.55;;;6.38;;
68614;SDS011;55593;51.994;5.882;2024-03-25T02:23:44;22.08;;;4.60;;
68614;SDS011;55593;51.994;5.882;2024-03-25T02:26:14;34.63;;;6.53;;
68614;SDS011;55593;51.994;5.882;2024-03-25T02:28:40;35.75;;;6.90;;
68614;SDS011;55593;51.994;5.882;2024-03-25T02:31:07;29.70;;;4.90;;
68614;SDS011;55593;51.994;5.882;2024-03-25T02:33:33;19.33;;;4.20;;
68614;SDS011;55593;51.994;5.882;2024-03-25T02:36:00;29.55;;;5.93;;
68614;SDS011;55593;51.994;5.882;2024-03-25T02:38:26;33.25;;;5.72;;
68614;SDS011;55593;51.994;5.882;2024-03-25T02:40:53;27.40;;;4.80;;
68614;SDS011;55593;51.994;5.882;2024-03-25T02:43:22;23.08;;;4.82;;
68614;SDS011;55593;51.994;5.882;2024-03-25T02:45:49;33.88;;;5.20;;
68614;SDS011;55593;51.994;5.882;2024-03-25T02:48:15;39.60;;;5.75;;
68614;SDS011;55593;51.994;5.882;2024-03-25T02:50:42;25.50;;;4.75;;
68614;SDS011;55593;51.994;5.882;2024-03-25T02:53:08;22.15;;;4.50;;
68614;SDS011;55593;51.994;5.882;2024-03-25T02:55:35;28.20;;;5.93;;
68614;SDS011;55593;51.994;5.882;2024-03-25T02:58:01;22.85;;;4.25;;
68614;SDS011;55593;51.994;5.882;2024-03-25T03:00:30;30.27;;;5.00;;
68614;SDS011;55593;51.994;5.882;2024-03-25T03:02:57;33.10;;;5.90;;
68614;SDS011;55593;51.994;5.882;2024-03-25T03:05:23;30.33;;;5.82;;
68614;SDS011;55593;51.994;5.882;2024-03-25T03:07:50;23.15;;;5.20;;
68614;SDS011;55593;51.994;5.882;2024-03-25T03:10:16;21.88;;;4.40;;
68614;SDS011;55593;51.994;5.882;2024-03-25T03:12:42;28.25;;;4.97;;
68614;SDS011;55593;51.994;5.882;2024-03-25T03:15:09;29.02;;;5.07;;
68614;SDS011;55593;51.994;5.882;2024-03-25T03:17:38;24.25;;;4.18;;
68614;SDS011;55593;51.994;5.882;2024-03-25T03:20:05;31.05;;;5.13;;
68614;SDS011;55593;51.994;5.882;2024-03-25T03:22:33;35.25;;;6.60;;
68614;SDS011;55593;51.994;5.882;2024-03-25T03:25:01;26.27;;;5.80;;
68614;SDS011;55593;51.994;5.882;2024-03-25T03:27:27;37.33;;;5.70;;
68614;SDS011;55593;51.994;5.882;2024-03-25T03:29:54;33.72;;;5.82;;
68614;SDS011;55593;51.994;5.882;2024-03-25T03:32:20;28.10;;;4.45;;
68614;SDS011;55593;51.994;5.882;2024-03-25T03:34:49;24.40;;;5.43;;
68614;SDS011;55593;51.994;5.882;2024-03-25T03:37:15;33.45;;;5.88;;
68614;SDS011;55593;51.994;5.882;2024-03-25T03:39:42;20.92;;;5.22;;
68614;SDS011;55593;51.994;5.882;2024-03-25T03:42:08;29.90;;;5.05;;
68614;SDS011;55593;51.994;5.882;2024-03-25T03:44:35;20.67;;;4.97;;
68614;SDS011;55593;51.994;5.882;2024-03-25T03:47:01;17.83;;;4.78;;
68614;SDS011;55593;51.994;5.882;2024-03-25T03:49:28;23.98;;;4.13;;
68614;SDS011;55593;51.994;5.882;2024-03-25T03:51:57;33.28;;;4.72;;
68614;SDS011;55593;51.994;5.882;2024-03-25T03:54:23;20.67;;;4.40;;
68614;SDS011;55593;51.994;5.882;2024-03-25T03:56:50;27.58;;;5.97;;
68614;SDS011;55593;51.994;5.882;2024-03-25T03:59:16;26.98;;;4.32;;
68614;SDS011;55593;51.994;5.882;2024-03-25T04:01:42;25.63;;;4.25;;
68614;SDS011;55593;51.994;5.882;2024-03-25T04:04:09;20.23;;;3.85;;
68614;SDS011;55593;51.994;5.882;2024-03-25T04:06:35;23.10;;;3.78;;
68614;SDS011;55593;51.994;5.882;2024-03-25T04:09:05;24.70;;;4.10;;
68614;SDS011;55593;51.994;5.882;2024-03-25T04:11:31;28.35;;;5.50;;
68614;SDS011;55593;51.994;5.882;2024-03-25T04:13:57;30.45;;;7.57;;
68614;SDS011;55593;51.994;5.882;2024-03-25T04:16:24;23.15;;;4.47;;
68614;SDS011;55593;51.994;5.882;2024-03-25T04:18:50;37.33;;;8.18;;
68614;SDS011;55593;51.994;5.882;2024-03-25T04:21:17;25.25;;;6.18;;
68614;SDS011;55593;51.994;5.882;2024-03-25T04:23:43;25.85;;;5.10;;
68614;SDS011;55593;51.994;5.882;2024-03-25T04:26:12;28.33;;;5.07;;
68614;SDS011;55593;51.994;5.882;2024-03-25T04:28:39;30.80;;;5.40;;
68614;SDS011;55593;51.994;5.882;2024-03-25T04:31:07;23.52;;;5.15;;
68614;SDS011;55593;51.994;5.882;2024-03-25T04:33:33;32.25;;;5.82;;
68614;SDS011;55593;51.994;5.882;2024-03-25T04:36:00;18.67;;;5.10;;
68614;SDS011;55593;51.994;5.882;2024-03-25T04:38:26;39.78;;;6.50;;
68614;SDS011;55593;51.994;5.882;2024-03-25T04:40:53;26.02;;;5.15;;
68614;SDS011;55593;51.994;5.882;2024-03-25T04:43:22;44.75;;;7.55;;
68614;SDS011;55593;51.994;5.882;2024-03-25T04:45:48;23.88;;;6.20;;
68614;SDS011;55593;51.994;5.882;2024-03-25T04:48:15;25.30;;;5.88;;
68614;SDS011;55593;51.994;5.882;2024-03-25T04:50:41;31.33;;;6.57;;
68614;SDS011;55593;51.994;5.882;2024-03-25T04:53:08;31.45;;;6.63;;
68614;SDS011;55593;51.994;5.882;2024-03-25T04:55:34;35.20;;;7.32;;
68614;SDS011;55593;51.994;5.882;2024-03-25T04:58:01;28.25;;;7.03;;
68614;SDS011;55593;51.994;5.882;2024-03-25T05:00:30;27.80;;;7.57;;
68614;SDS011;55593;51.994;5.882;2024-03-25T05:02:56;32.35;;;8.35;;
68614;SDS011;55593;51.994;5.882;2024-03-25T05:05:23;41.20;;;8.43;;
68614;SDS011;55593;51.994;5.882;2024-03-25T05:07:49;33.90;;;9.00;;
68614;SDS011;55593;51.994;5.882;2024-03-25T05:10:16;44.55;;;8.95;;
68614;SDS011;55593;51.994;5.882;2024-03-25T05:12:42;41.17;;;10.13;;
68614;SDS011;55593;51.994;5.882;2024-03-25T05:15:09;24.77;;;8.10;;
68614;SDS011;55593;51.994;5.882;2024-03-25T05:17:38;29.00;;;8.18;;
68614;SDS011;55593;51.994;5.882;2024-03-25T05:20:05;39.90;;;9.60;;
68614;SDS011;55593;51.994;5.882;2024-03-25T05:22:32;31.58;;;8.45;;
68614;SDS011;55593;51.994;5.882;2024-03-25T05:24:59;38.30;;;9.18;;
68614;SDS011;55593;51.994;5.882;2024-03-25T05:27:25;46.00;;;9.15;;
68614;SDS011;55593;51.994;5.882;2024-03-25T05:29:52;34.03;;;9.10;;
68614;SDS011;55593;51.994;5.882;2024-03-25T05:32:18;55.85;;;9.50;;
68614;SDS011;55593;51.994;5.882;2024-03-25T05:34:48;26.65;;;7.57;;
68614;SDS011;55593;51.994;5.882;2024-03-25T05:37:14;27.98;;;7.47;;
68614;SDS011;55593;51.994;5.882;2024-03-25T05:39:40;35.30;;;10.00;;
68614;SDS011;55593;51.994;5.882;2024-03-25T05:42:07;28.52;;;8.15;;
68614;SDS011;55593;51.994;5.882;2024-03-25T05:44:33;34.92;;;8.63;;
68614;SDS011;55593;51.994;5.882;2024-03-25T05:47:00;42.22;;;9.77;;
68614;SDS011;55593;51.994;5.882;2024-03-25T05:49:26;33.20;;;8.57;;
68614;SDS011;55593;51.994;5.882;2024-03-25T05:51:55;21.00;;;7.57;;
68614;SDS011;55593;51.994;5.882;2024-03-25T05:54:22;35.60;;;8.60;;
68614;SDS011;55593;51.994;5.882;2024-03-25T05:56:48;38.80;;;8.57;;
68614;SDS011;55593;51.994;5.882;2024-03-25T05:59:15;33.00;;;8.88;;
68614;SDS011;55593;51.994;5.882;2024-03-25T06:01:41;32.75;;;9.75;;
68614;SDS011;55593;51.994;5.882;2024-03-25T06:04:08;28.45;;;8.23;;
68614;SDS011;55593;51.994;5.882;2024-03-25T06:06:34;45.75;;;8.45;;
68614;SDS011;55593;51.994;5.882;2024-03-25T06:09:04;42.35;;;9.20;;
68614;SDS011;55593;51.994;5.882;2024-03-25T06:11:30;31.92;;;8.07;;
68614;SDS011;55593;51.994;5.882;2024-03-25T06:13:57;36.97;;;8.98;;
68614;SDS011;55593;51.994;5.882;2024-03-25T06:16:23;34.75;;;8.15;;
68614;SDS011;55593;51.994;5.882;2024-03-25T06:18:52;43.88;;;8.73;;
68614;SDS011;55593;51.994;5.882;2024-03-25T06:21:18;35.88;;;8.93;;
68614;SDS011;55593;51.994;5.882;2024-03-25T06:23:45;34.63;;;8.35;;
68614;SDS011;55593;51.994;5.882;2024-03-25T06:26:14;36.78;;;8.20;;
68614;SDS011;55593;51.994;5.882;2024-03-25T06:28:42;27.77;;;7.72;;
68614;SDS011;55593;51.994;5.882;2024-03-25T06:31:08;45.95;;;9.00;;
68614;SDS011;55593;51.994;5.882;2024-03-25T06:33:50;31.02;;;8.23;;
68614;SDS011;55593;51.994;5.882;2024-03-25T06:36:31;36.03;;;8.27;;
68614;SDS011;55593;51.994;5.882;2024-03-25T06:38:58;34.20;;;8.30;;
68614;SDS011;55593;51.994;5.882;2024-03-25T06:41:27;36.45;;;9.32;;
68614;SDS011;55593;51.994;5.882;2024-03-25T06:43:54;46.45;;;9.80;;
68614;SDS011;55593;51.994;5.882;2024-03-25T06:46:20;28.00;;;7.75;;
68614;SDS011;55593;51.994;5.882;2024-03-25T06:48:47;35.35;;;7.80;;
68614;SDS011;55593;51.994;5.882;2024-03-25T06:51:13;29.58;;;7.78;;
68614;SDS011;55593;51.994;5.882;2024-03-25T06:53:40;31.70;;;7.97;;
68614;SDS011;55593;51.994;5.882;2024-03-25T06:56:06;42.50;;;8.48;;
68614;SDS011;55593;51.994;5.882;2024-03-25T06:58:35;28.52;;;8.35;;
68614;SDS011;55593;51.994;5.882;2024-03-25T07:01:04;38.17;;;8.82;;
68614;SDS011;55593;51.994;5.882;2024-03-25T07:03:31;29.77;;;8.20;;
68614;SDS011;55593;51.994;5.882;2024-03-25T07:05:58;39.20;;;10.10;;
68614;SDS011;55593;51.994;5.882;2024-03-25T07:08:26;33.40;;;8.18;;
68614;SDS011;55593;51.994;5.882;2024-03-25T07:10:53;37.83;;;8.38;;
68614;SDS011;55593;51.994;5.882;2024-03-25T07:13:20;42.03;;;10.00;;
68614;SDS011;55593;51.994;5.882;2024-03-25T07:15:49;32.42;;;7.47;;
68614;SDS011;55593;51.994;5.882;2024-03-25T07:18:16;44.80;;;8.88;;
68614;SDS011;55593;51.994;5.882;2024-03-25T07:20:43;32.67;;;8.80;;
68614;SDS011;55593;51.994;5.882;2024-03-25T07:23:10;52.08;;;8.38;;
68614;SDS011;55593;51.994;5.882;2024-03-25T07:25:37;32.97;;;8.43;;
68614;SDS011;55593;51.994;5.882;2024-03-25T07:28:03;54.15;;;8.93;;
68614;SDS011;55593;51.994;5.882;2024-03-25T07:30:30;36.00;;;8.73;;
68614;SDS011;55593;51.994;5.882;2024-03-25T07:32:59;33.80;;;10.35;;
68614;SDS011;55593;51.994;5.882;2024-03-25T07:35:26;36.38;;;8.57;;
68614;SDS011;55593;51.994;5.882;2024-03-25T07:37:52;23.13;;;7.68;;
68614;SDS011;55593;51.994;5.882;2024-03-25T07:40:19;27.35;;;8.75;;
68614;SDS011;55593;51.994;5.882;2024-03-25T07:42:46;40.30;;;9.48;;
68614;SDS011;55593;51.994;5.882;2024-03-25T07:45:13;24.17;;;7.75;;
68614;SDS011;55593;51.994;5.882;2024-03-25T07:47:39;20.33;;;7.13;;
68614;SDS011;55593;51.994;5.882;2024-03-25T07:50:09;26.77;;;7.22;;
68614;SDS011;55593;51.994;5.882;2024-03-25T07:52:35;28.33;;;7.47;;
68614;SDS011;55593;51.994;5.882;2024-03-25T07:55:02;26.27;;;8.50;;
68614;SDS011;55593;51.994;5.882;2024-03-25T07:57:29;35.00;;;7.38;;
68614;SDS011;55593;51.994;5.882;2024-03-25T07:59:55;32.20;;;7.68;;
68614;SDS011;55593;51.994;5.882;2024-03-25T08:02:22;25.80;;;6.88;;
68614;SDS011;55593;51.994;5.882;2024-03-25T08:04:48;23.98;;;7.38;;
68614;SDS011;55593;51.994;5.882;2024-03-25T08:07:18;35.05;;;7.70;;
68614;SDS011;55593;51.994;5.882;2024-03-25T08:09:44;27.92;;;7.55;;
68614;SDS011;55593;51.994;5.882;2024-03-25T08:12:11;45.25;;;8.30;;
68614;SDS011;55593;51.994;5.882;2024-03-25T08:14:37;35.63;;;8.05;;
68614;SDS011;55593;51.994;5.882;2024-03-25T08:17:03;27.33;;;6.68;;
68614;SDS011;55593;51.994;5.882;2024-03-25T08:19:30;35.88;;;8.95;;
68614;SDS011;55593;51.994;5.882;2024-03-25T08:21:57;34.83;;;7.38;;
68614;SDS011;55593;51.994;5.882;2024-03-25T08:24:26;29.27;;;7.25;;
68614;SDS011;55593;51.994;5.882;2024-03-25T08:26:53;27.77;;;8.60;;
68614;SDS011;55593;51.994;5.882;2024-03-25T08:29:19;35.65;;;7.13;;
68614;SDS011;55593;51.994;5.882;2024-03-25T08:31:46;26.80;;;8.25;;
68614;SDS011;55593;51.994;5.882;2024-03-25T08:34:12;31.55;;;7.47;;
68614;SDS011;55593;51.994;5.882;2024-03-25T08:36:39;39.67;;;8.27;;
68614;SDS011;55593;51.994;5.882;2024-03-25T08:39:05;25.27;;;6.65;;
68614;SDS011;55593;51.994;5.882;2024-03-25T08:41:34;34.97;;;8.10;;
68614;SDS011;55593;51.994;5.882;2024-03-25T08:44:01;28.70;;;6.50;;
68614;SDS011;55593;51.994;5.882;2024-03-25T08:46:27;22.75;;;6.85;;
68614;SDS011;55593;51.994;5.882;2024-03-25T08:48:53;28.55;;;5.22;;
68614;SDS011;55593;51.994;5.882;2024-03-25T08:51:20;19.35;;;4.75;;
68614;SDS011;55593;51.994;5.882;2024-03-25T08:53:46;25.98;;;4.38;;
68614;SDS011;55593;51.994;5.882;2024-03-25T08:56:13;21.58;;;5.15;;
68614;SDS011;55593;51.994;5.882;2024-03-25T08:58:42;26.75;;;5.80;;
68614;SDS011;55593;51.994;5.882;2024-03-25T09:01:08;25.02;;;7.50;;
68614;SDS011;55593;51.994;5.882;2024-03-25T09:03:35;15.60;;;4.45;;
68614;SDS011;55593;51.994;5.882;2024-03-25T09:06:01;19.52;;;5.03;;
68614;SDS011;55593;51.994;5.882;2024-03-25T09:08:28;19.42;;;3.80;;
68614;SDS011;55593;51.994;5.882;2024-03-25T09:10:55;14.57;;;2.80;;
68614;SDS011;55593;51.994;5.882;2024-03-25T09:13:30;17.85;;;3.55;;
68614;SDS011;55593;51.994;5.882;2024-03-25T09:15:59;18.02;;;3.83;;
68614;SDS011;55593;51.994;5.882;2024-03-25T09:18:26;18.38;;;4.18;;
68614;SDS011;55593;51.994;5.882;2024-03-25T09:20:52;18.92;;;5.25;;
68614;SDS011;55593;51.994;5.882;2024-03-25T09:23:19;19.40;;;5.78;;
68614;SDS011;55593;51.994;5.882;2024-03-25T09:25:51;25.40;;;5.97;;
68614;SDS011;55593;51.994;5.882;2024-03-25T09:28:18;23.00;;;6.43;;
68614;SDS011;55593;51.994;5.882;2024-03-25T09:30:45;24.52;;;6.28;;
68614;SDS011;55593;51.994;5.882;2024-03-25T09:33:14;20.38;;;6.43;;
68614;SDS011;55593;51.994;5.882;2024-03-25T09:35:41;29.85;;;6.75;;
68614;SDS011;55593;51.994;5.882;2024-03-25T09:38:07;30.13;;;7.50;;
68614;SDS011;55593;51.994;5.882;2024-03-25T09:40:34;28.42;;;8.98;;
68614;SDS011;55593;51.994;5.882;2024-03-25T09:43:02;24.05;;;6.63;;
68614;SDS011;55593;51.994;5.882;2024-03-25T09:45:29;23.83;;;6.82;;
68614;SDS011;55593;51.994;5.882;2024-03-25T09:47:56;23.73;;;6.28;;
68614;SDS011;55593;51.994;5.882;2024-03-25T09:50:25;20.95;;;7.00;;
68614;SDS011;55593;51.994;5.882;2024-03-25T09:52:51;19.02;;;7.10;;
68614;SDS011;55593;51.994;5.882;2024-03-25T09:55:18;18.55;;;5.25;;
68614;SDS011;55593;51.994;5.882;2024-03-25T09:57:44;23.05;;;5.85;;
68614;SDS011;55593;51.994;5.882;2024-03-25T10:00:12;19.17;;;5.65;;
68614;SDS011;55593;51.994;5.882;2024-03-25T10:02:42;28.58;;;7.05;;
68614;SDS011;55593;51.994;5.882;2024-03-25T10:05:08;29.33;;;7.50;;
68614;SDS011;55593;51.994;5.882;2024-03-25T10:07:37;25.05;;;6.90;;
68614;SDS011;55593;51.994;5.882;2024-03-25T10:10:04;23.48;;;6.25;;
68614;SDS011;55593;51.994;5.882;2024-03-25T10:12:31;22.95;;;5.05;;
68614;SDS011;55593;51.994;5.882;2024-03-25T10:14:58;20.63;;;5.60;;
68614;SDS011;55593;51.994;5.882;2024-03-25T10:17:24;20.50;;;5.63;;
68614;SDS011;55593;51.994;5.882;2024-03-25T10:19:53;21.42;;;5.57;;
68614;SDS011;55593;51.994;5.882;2024-03-25T10:22:19;18.63;;;5.05;;
68614;SDS011;55593;51.994;5.882;2024-03-25T10:24:48;18.05;;;4.97;;
68614;SDS011;55593;51.994;5.882;2024-03-25T10:27:18;23.08;;;5.72;;
68614;SDS011;55593;51.994;5.882;2024-03-25T10:29:46;20.60;;;4.72;;
68614;SDS011;55593;51.994;5.882;2024-03-25T10:32:12;21.05;;;7.10;;
68614;SDS011;55593;51.994;5.882;2024-03-25T10:34:39;24.52;;;5.80;;
68614;SDS011;55593;51.994;5.882;2024-03-25T10:37:07;17.45;;;4.85;;
68614;SDS011;55593;51.994;5.882;2024-03-25T10:39:37;16.40;;;4.78;;
68614;SDS011;55593;51.994;5.882;2024-03-25T10:42:08;17.77;;;4.68;;
68614;SDS011;55593;51.994;5.882;2024-03-25T10:44:37;16.73;;;4.10;;
68614;SDS011;55593;51.994;5.882;2024-03-25T10:47:05;21.58;;;4.85;;
68614;SDS011;55593;51.994;5.882;2024-03-25T10:49:33;15.13;;;5.35;;
68614;SDS011;55593;51.994;5.882;2024-03-25T10:52:00;16.92;;;4.95;;
68614;SDS011;55593;51.994;5.882;2024-03-25T10:54:28;15.82;;;3.65;;
68614;SDS011;55593;51.994;5.882;2024-03-25T10:56:57;16.23;;;3.80;;
68614;SDS011;55593;51.994;5.882;2024-03-25T10:59:27;17.58;;;3.92;;
68614;SDS011;55593;51.994;5.882;2024-03-25T11:01:56;14.10;;;3.40;;
68614;SDS011;55593;51.994;5.882;2024-03-25T11:04:22;12.75;;;4.30;;
68614;SDS011;55593;51.994;5.882;2024-03-25T11:06:49;18.98;;;5.18;;
68614;SDS011;55593;51.994;5.882;2024-03-25T11:09:22;21.50;;;4.35;;
68614;SDS011;55593;51.994;5.882;2024-03-25T11:14:18;15.75;;;4.05;;
68614;SDS011;55593;51.994;5.882;2024-03-25T11:16:53;12.25;;;3.85;;
68614;SDS011;55593;51.994;5.882;2024-03-25T11:19:20;14.35;;;4.63;;
68614;SDS011;55593;51.994;5.882;2024-03-25T11:21:51;16.50;;;4.53;;
68614;SDS011;55593;51.994;5.882;2024-03-25T11:24:26;18.20;;;4.25;;
68614;SDS011;55593;51.994;5.882;2024-03-25T11:26:53;16.77;;;5.60;;
68614;SDS011;55593;51.994;5.882;2024-03-25T11:29:20;21.08;;;4.93;;
68614;SDS011;55593;51.994;5.882;2024-03-25T11:31:47;18.98;;;4.90;;
68614;SDS011;55593;51.994;5.882;2024-03-25T11:34:21;20.50;;;4.68;;
68614;SDS011;55593;51.994;5.882;2024-03-25T11:36:48;13.45;;;4.10;;
68614;SDS011;55593;51.994;5.882;2024-03-25T11:39:14;17.10;;;3.97;;
68614;SDS011;55593;51.994;5.882;2024-03-25T11:41:41;17.92;;;4.30;;
68614;SDS011;55593;51.994;5.882;2024-03-25T11:44:08;12.35;;;4.03;;
68614;SDS011;55593;51.994;5.882;2024-03-25T11:46:36;16.92;;;4.50;;
68614;SDS011;55593;51.994;5.882;2024-03-25T11:49:03;21.70;;;4.10;;
68614;SDS011;55593;51.994;5.882;2024-03-25T11:51:32;17.33;;;4.70;;
68614;SDS011;55593;51.994;5.882;2024-03-25T11:53:59;13.88;;;4.20;;
68614;SDS011;55593;51.994;5.882;2024-03-25T11:56:28;12.55;;;3.97;;
68614;SDS011;55593;51.994;5.882;2024-03-25T11:58:55;15.70;;;4.25;;
68614;SDS011;55593;51.994;5.882;2024-03-25T12:01:21;14.65;;;4.30;;
68614;SDS011;55593;51.994;5.882;2024-03-25T12:03:48;16.70;;;4.35;;
68614;SDS011;55593;51.994;5.882;2024-03-25T12:06:17;17.00;;;4.57;;
68614;SDS011;55593;51.994;5.882;2024-03-25T12:08:46;12.77;;;4.88;;
68614;SDS011;55593;51.994;5.882;2024-03-25T12:11:16;14.93;;;4.22;;
68614;SDS011;55593;51.994;5.882;2024-03-25T12:13:45;13.10;;;3.92;;
68614;SDS011;55593;51.994;5.882;2024-03-25T12:16:12;17.85;;;4.22;;
68614;SDS011;55593;51.994;5.882;2024-03-25T12:18:39;16.88;;;4.63;;
68614;SDS011;55593;51.994;5.882;2024-03-25T12:21:07;16.45;;;3.92;;
68614;SDS011;55593;51.994;5.882;2024-03-25T12:23:34;13.63;;;4.22;;
68614;SDS011;55593;51.994;5.882;2024-03-25T12:26:03;13.02;;;4.13;;
68614;SDS011;55593;51.994;5.882;2024-03-25T12:28:31;20.27;;;4.97;;
68614;SDS011;55593;51.994;5.882;2024-03-25T12:30:59;15.15;;;4.00;;
68614;SDS011;55593;51.994;5.882;2024-03-25T12:33:25;24.15;;;6.20;;
68614;SDS011;55593;51.994;5.882;2024-03-25T12:35:52;11.48;;;3.70;;
68614;SDS011;55593;51.994;5.882;2024-03-25T12:38:25;13.23;;;4.80;;
68614;SDS011;55593;51.994;5.882;2024-03-25T12:40:52;9.95;;;3.92;;
68614;SDS011;55593;51.994;5.882;2024-03-25T12:43:22;14.80;;;4.53;;
68614;SDS011;55593;51.994;5.882;2024-03-25T12:45:48;15.20;;;3.97;;
68614;SDS011;55593;51.994;5.882;2024-03-25T12:48:15;12.63;;;4.30;;
68614;SDS011;55593;51.994;5.882;2024-03-25T12:50:41;14.13;;;4.53;;
68614;SDS011;55593;51.994;5.882;2024-03-25T12:53:08;14.88;;;4.25;;
68614;SDS011;55593;51.994;5.882;2024-03-25T12:55:34;12.18;;;5.00;;
68614;SDS011;55593;51.994;5.882;2024-03-25T12:58:01;9.50;;;4.22;;
68614;SDS011;55593;51.994;5.882;2024-03-25T13:00:30;12.13;;;3.88;;
68614;SDS011;55593;51.994;5.882;2024-03-25T13:02:56;12.00;;;4.05;;
68614;SDS011;55593;51.994;5.882;2024-03-25T13:05:23;16.20;;;4.40;;
68614;SDS011;55593;51.994;5.882;2024-03-25T13:07:49;15.43;;;4.78;;
68614;SDS011;55593;51.994;5.882;2024-03-25T13:10:15;14.27;;;4.72;;
68614;SDS011;55593;51.994;5.882;2024-03-25T13:12:42;13.20;;;5.57;;
68614;SDS011;55593;51.994;5.882;2024-03-25T13:15:08;15.27;;;5.03;;
68614;SDS011;55593;51.994;5.882;2024-03-25T13:17:38;12.10;;;4.97;;
68614;SDS011;55593;51.994;5.882;2024-03-25T13:20:05;15.27;;;5.68;;
68614;SDS011;55593;51.994;5.882;2024-03-25T13:22:32;12.88;;;5.15;;
68614;SDS011;55593;51.994;5.882;2024-03-25T13:24:58;14.05;;;5.40;;
68614;SDS011;55593;51.994;5.882;2024-03-25T13:27:25;13.85;;;5.93;;
68614;SDS011;55593;51.994;5.882;2024-03-25T13:29:51;16.83;;;6.05;;
68614;SDS011;55593;51.994;5.882;2024-03-25T13:32:18;14.38;;;5.35;;
68614;SDS011;55593;51.994;5.882;2024-03-25T13:34:47;10.27;;;4.63;;
68614;SDS011;55593;51.994;5.882;2024-03-25T13:37:13;11.68;;;4.05;;
68614;SDS011;55593;51.994;5.882;2024-03-25T13:39:40;9.95;;;4.75;;
68614;SDS011;55593;51.994;5.882;2024-03-25T13:42:06;11.90;;;4.47;;
68614;SDS011;55593;51.994;5.882;2024-03-25T13:44:33;12.65;;;4.75;;
68614;SDS011;55593;51.994;5.882;2024-03-25T13:46:59;11.52;;;4.70;;
68614;SDS011;55593;51.994;5.882;2024-03-25T13:49:26;14.27;;;5.28;;
68614;SDS011;55593;51.994;5.882;2024-03-25T13:51:58;10.85;;;5.00;;
68614;SDS011;55593;51.994;5.882;2024-03-25T13:54:24;18.50;;;5.82;;
68614;SDS011;55593;51.994;5.882;2024-03-25T13:56:51;11.82;;;3.95;;
68614;SDS011;55593;51.994;5.882;2024-03-25T13:59:18;8.75;;;4.13;;
68614;SDS011;55593;51.994;5.882;2024-03-25T14:01:44;13.75;;;4.13;;
68614;SDS011;55593;51.994;5.882;2024-03-25T14:04:11;9.95;;;3.85;;
68614;SDS011;55593;51.994;5.882;2024-03-25T14:06:38;10.75;;;4.13;;
68614;SDS011;55593;51.994;5.882;2024-03-25T14:09:07;9.35;;;4.10;;
68614;SDS011;55593;51.994;5.882;2024-03-25T14:11:39;12.85;;;5.25;;
68614;SDS011;55593;51.994;5.882;2024-03-25T14:14:05;9.30;;;3.55;;
68614;SDS011;55593;51.994;5.882;2024-03-25T14:16:32;12.13;;;4.53;;
68614;SDS011;55593;51.994;5.882;2024-03-25T14:18:59;9.93;;;3.28;;
68614;SDS011;55593;51.994;5.882;2024-03-25T14:21:30;10.98;;;3.72;;
68614;SDS011;55593;51.994;5.882;2024-03-25T14:23:56;10.27;;;3.08;;
68614;SDS011;55593;51.994;5.882;2024-03-25T14:26:25;8.48;;;3.83;;
68614;SDS011;55593;51.994;5.882;2024-03-25T14:28:52;13.00;;;4.45;;
68614;SDS011;55593;51.994;5.882;2024-03-25T14:31:18;10.13;;;3.60;;
68614;SDS011;55593;51.994;5.882;2024-03-25T14:33:45;10.63;;;3.83;;
68614;SDS011;55593;51.994;5.882;2024-03-25T14:36:11;11.40;;;3.88;;
68614;SDS011;55593;51.994;5.882;2024-03-25T14:38:38;11.82;;;3.58;;